createdAt,value
2024-01-18T00:01:53.834Z,68.30
2024-01-18T00:04:27.482Z,68.24
2024-01-18T00:07:01.221Z,68.22
2024-01-18T00:09:34.961Z,68.25
2024-01-18T00:12:10.076Z,68.29
2024-01-18T00:14:45.803Z,68.28
2024-01-18T00:17:19.679Z,68.32
2024-01-18T00:19:53.550Z,68.34
2024-01-18T00:22:27.349Z,68.50
2024-01-18T00:25:00.772Z,68.60
2024-01-18T00:27:34.865Z,68.64
2024-01-18T00:30:10.667Z,68.70
2024-01-18T00:32:44.644Z,68.67
2024-01-18T00:35:19.237Z,68.66
2024-01-18T00:37:52.854Z,68.67
2024-01-18T00:40:26.489Z,68.61
2024-01-18T00:43:00.058Z,68.50
2024-01-18T00:45:33.718Z,68.37
2024-01-18T00:48:08.803Z,68.24
2024-01-18T00:50:42.460Z,68.16
2024-01-18T00:53:15.983Z,68.17
2024-01-18T00:55:49.592Z,68.13
2024-01-18T00:58:23.329Z,68.05
2024-01-18T01:00:57.134Z,68.05
2024-01-18T01:03:31.147Z,68.08
2024-01-18T01:06:04.938Z,68.05
2024-01-18T01:08:38.686Z,68.03
2024-01-18T01:11:12.365Z,68.00
2024-01-18T01:13:46.054Z,67.97
2024-01-18T01:16:20.568Z,67.91
2024-01-18T01:18:54.418Z,67.92
2024-01-18T01:21:28.077Z,67.94
2024-01-18T01:24:01.874Z,67.96
2024-01-18T01:26:35.518Z,67.97
2024-01-18T01:29:09.486Z,67.94
2024-01-18T01:31:43.051Z,67.92
2024-01-18T01:34:16.601Z,67.90
2024-01-18T01:36:50.245Z,67.94
2024-01-18T01:39:23.984Z,67.95
2024-01-18T01:41:57.618Z,67.96
2024-01-18T01:44:31.033Z,67.96
2024-01-18T01:47:04.853Z,67.95
2024-01-18T01:49:38.699Z,67.98
2024-01-18T01:52:13.263Z,67.91
2024-01-18T01:54:48.825Z,67.92
2024-01-18T01:57:23.223Z,68.02
2024-01-18T01:59:57.740Z,68.09
2024-01-18T02:02:32.457Z,68.19
2024-01-18T02:05:06.505Z,68.29
2024-01-18T02:07:40.355Z,68.37
2024-01-18T02:10:14.732Z,68.44
2024-01-18T02:12:50.919Z,68.42
2024-01-18T02:15:25.021Z,68.39
2024-01-18T02:17:59.104Z,68.36
2024-01-18T02:20:32.982Z,68.27
2024-01-18T02:23:09.541Z,68.18
2024-01-18T02:25:43.397Z,68.09
2024-01-18T02:28:18.817Z,68.03
2024-01-18T02:30:52.339Z,67.96
2024-01-18T02:33:26.531Z,68.00
2024-01-18T02:36:00.470Z,68.00
2024-01-18T02:38:34.070Z,67.98
2024-01-18T02:41:08.060Z,67.93
2024-01-18T02:43:42.473Z,67.94
2024-01-18T02:46:19.816Z,67.92
2024-01-18T02:48:53.405Z,67.84
2024-01-18T02:51:27.298Z,68.00
2024-01-18T02:54:01.110Z,68.17
2024-01-18T02:56:35.297Z,68.32
2024-01-18T02:59:08.953Z,68.32
2024-01-18T03:01:42.619Z,68.29
2024-01-18T03:04:16.310Z,68.27
2024-01-18T03:06:50.210Z,68.22
2024-01-18T03:09:24.102Z,68.16
2024-01-18T03:11:58.209Z,68.12
2024-01-18T03:17:13.491Z,68.23
2024-01-18T03:19:47.202Z,68.28
2024-01-18T03:22:20.910Z,68.42
2024-01-18T03:24:54.659Z,68.54
2024-01-18T03:27:28.260Z,68.65
2024-01-18T03:30:02.248Z,68.59
2024-01-18T03:32:36.003Z,68.62
2024-01-18T03:35:11.195Z,68.68
2024-01-18T03:37:44.779Z,68.71
2024-01-18T03:40:19.057Z,68.82
2024-01-18T03:42:52.638Z,68.82
2024-01-18T03:45:26.252Z,68.84
2024-01-18T03:47:59.971Z,68.87
2024-01-18T03:50:33.618Z,68.95
2024-01-18T03:53:07.945Z,69.01
2024-01-18T03:55:42.336Z,69.18
2024-01-18T03:58:16.134Z,69.26
2024-01-18T04:00:50.024Z,69.23
2024-01-18T04:03:24.695Z,69.21
2024-01-18T04:05:58.397Z,69.20
2024-01-18T04:08:32.243Z,69.18
2024-01-18T04:11:06.528Z,69.09
2024-01-18T04:13:40.148Z,69.03
2024-01-18T04:16:13.761Z,69.06
2024-01-18T04:18:47.613Z,69.01
2024-01-18T04:21:21.425Z,69.11
2024-01-18T04:23:57.232Z,69.10
2024-01-18T04:26:32.611Z,68.96
2024-01-18T04:29:06.202Z,68.94
2024-01-18T04:31:39.828Z,68.96
2024-01-18T04:34:13.979Z,68.99
2024-01-18T04:36:48.175Z,68.93
2024-01-18T04:39:21.886Z,68.98
2024-01-18T04:41:55.509Z,69.04
2024-01-18T04:44:29.262Z,69.14
2024-01-18T04:47:02.918Z,69.21
2024-01-18T04:49:36.411Z,69.27
2024-01-18T04:52:11.530Z,69.32
2024-01-18T04:54:45.303Z,69.33
2024-01-18T04:57:19.100Z,69.30
2024-01-18T04:59:53.061Z,69.25
2024-01-18T05:02:26.571Z,69.30
2024-01-18T05:05:00.698Z,69.33
2024-01-18T05:07:35.395Z,69.27
2024-01-18T05:10:10.974Z,69.19
2024-01-18T05:12:45.661Z,69.15
2024-01-18T05:15:20.010Z,69.07
2024-01-18T05:17:55.472Z,69.07
2024-01-18T05:20:29.221Z,69.13
2024-01-18T05:23:02.887Z,69.19
2024-01-18T05:25:36.699Z,69.21
2024-01-18T05:28:10.369Z,69.25
2024-01-18T05:30:43.977Z,69.28
2024-01-18T05:33:17.658Z,69.31
2024-01-18T05:35:51.080Z,69.31
2024-01-18T05:38:24.698Z,69.30
2024-01-18T05:40:58.221Z,69.29
2024-01-18T05:43:31.984Z,69.27
2024-01-18T05:46:06.087Z,69.21
2024-01-18T05:48:39.799Z,69.25
2024-01-18T05:51:13.418Z,69.32
2024-01-18T05:53:47.079Z,69.34
2024-01-18T05:56:20.763Z,69.31
2024-01-18T05:58:54.465Z,69.27
2024-01-18T06:01:27.977Z,69.23
2024-01-18T06:04:01.873Z,69.15
2024-01-18T06:06:35.402Z,69.08
2024-01-18T06:09:09.317Z,68.99
2024-01-18T06:11:43.140Z,69.01
2024-01-18T06:14:16.987Z,68.95
2024-01-18T06:16:50.793Z,68.90
2024-01-18T06:19:24.717Z,68.84
2024-01-18T06:21:58.541Z,68.82
2024-01-18T06:24:32.413Z,68.79
2024-01-18T06:27:06.696Z,68.77
2024-01-18T06:29:40.114Z,68.65
2024-01-18T06:32:14.968Z,68.52
2024-01-18T06:34:48.818Z,68.47
2024-01-18T06:37:22.532Z,68.43
2024-01-18T06:39:56.527Z,68.37
2024-01-18T06:42:30.373Z,68.42
2024-01-18T06:45:04.460Z,68.32
2024-01-18T06:47:38.375Z,68.29
2024-01-18T06:50:14.556Z,68.29
2024-01-18T06:52:49.579Z,68.22
2024-01-18T06:55:23.315Z,68.19
2024-01-18T06:57:59.029Z,68.03
2024-01-18T07:00:34.203Z,67.94
2024-01-18T07:03:09.828Z,67.77
2024-01-18T07:05:44.083Z,67.83
2024-01-18T07:08:17.713Z,67.60
2024-01-18T07:10:51.550Z,67.58
2024-01-18T07:13:25.130Z,67.48
2024-01-18T07:15:58.942Z,67.23
2024-01-18T07:18:32.765Z,66.99
2024-01-18T07:21:06.858Z,66.75
2024-01-18T07:23:40.974Z,66.72
2024-01-18T07:26:14.649Z,66.78
2024-01-18T07:28:48.751Z,66.60
2024-01-18T07:31:22.187Z,66.21
2024-01-18T07:33:56.190Z,66.10
2024-01-18T07:36:30.277Z,65.61
2024-01-18T07:39:04.635Z,65.75
2024-01-18T07:41:38.661Z,65.24
2024-01-18T07:44:13.054Z,65.08
2024-01-18T07:46:46.560Z,65.05
2024-01-18T07:49:21.852Z,64.91
2024-01-18T07:51:56.071Z,64.62
2024-01-18T07:54:30.086Z,64.42
2024-01-18T07:57:03.683Z,64.11
2024-01-18T07:59:37.612Z,63.98
2024-01-18T08:02:11.289Z,64.17
2024-01-18T08:04:45.162Z,63.96
2024-01-18T08:07:18.903Z,63.58
2024-01-18T08:09:52.712Z,63.40
2024-01-18T08:12:26.352Z,62.73
2024-01-18T08:15:00.338Z,62.23
2024-01-18T08:17:35.096Z,62.10
2024-01-18T08:20:12.862Z,62.03
2024-01-18T08:22:46.925Z,62.31
2024-01-18T08:25:20.891Z,62.06
2024-01-18T08:27:56.524Z,61.89
2024-01-18T08:30:30.504Z,61.88
2024-01-18T08:33:04.639Z,61.84
2024-01-18T08:35:39.099Z,62.11
2024-01-18T08:38:12.663Z,61.81
2024-01-18T08:40:46.348Z,61.46
2024-01-18T08:43:21.640Z,61.54
2024-01-18T08:45:55.332Z,61.65
2024-01-18T08:48:29.047Z,60.98
2024-01-18T08:51:03.553Z,60.44
2024-01-18T08:53:37.277Z,60.20
2024-01-18T08:56:11.256Z,60.26
2024-01-18T08:58:45.220Z,59.75
2024-01-18T09:01:18.948Z,59.19
2024-01-18T09:03:52.811Z,59.37
2024-01-18T09:06:27.321Z,59.59
2024-01-18T09:09:00.991Z,59.71
2024-01-18T09:11:35.083Z,59.78
2024-01-18T09:14:08.954Z,59.13
2024-01-18T09:16:42.889Z,59.32
2024-01-18T09:19:16.546Z,59.27
2024-01-18T09:21:50.394Z,59.03
2024-01-18T09:24:24.056Z,58.92
2024-01-18T09:26:57.963Z,58.78
2024-01-18T09:29:31.820Z,58.58
2024-01-18T09:32:07.422Z,58.42
2024-01-18T09:34:41.253Z,58.95
2024-01-18T09:37:15.258Z,58.63
2024-01-18T09:39:49.222Z,58.71
2024-01-18T09:42:24.791Z,58.77
2024-01-18T09:45:01.432Z,59.01
2024-01-18T09:47:35.483Z,59.24
2024-01-18T09:50:11.451Z,59.21
2024-01-18T09:52:46.877Z,58.96
2024-01-18T09:55:20.968Z,59.02
2024-01-18T09:57:57.328Z,58.71
2024-01-18T10:00:33.371Z,58.78
2024-01-18T10:03:07.986Z,58.89
2024-01-18T10:05:41.790Z,59.11
2024-01-18T10:08:16.169Z,58.95
2024-01-18T10:10:50.186Z,58.69
2024-01-18T10:13:23.549Z,58.68
2024-01-18T10:15:57.215Z,58.65
2024-01-18T10:18:30.949Z,58.89
2024-01-18T10:21:04.960Z,59.00
2024-01-18T10:23:38.620Z,58.78
2024-01-18T10:26:14.423Z,58.65
2024-01-18T10:28:48.575Z,58.77
2024-01-18T10:31:22.515Z,59.35
2024-01-18T10:33:57.435Z,59.17
2024-01-18T10:36:31.388Z,59.14
2024-01-18T10:39:18.039Z,59.39
2024-01-18T10:41:51.993Z,58.83
2024-01-18T10:44:26.857Z,58.65
2024-01-18T10:47:00.279Z,58.90
2024-01-18T10:49:35.007Z,58.98
2024-01-18T10:52:10.364Z,58.79
2024-01-18T10:54:50.083Z,58.72
2024-01-18T10:57:19.480Z,58.51
2024-01-18T10:59:54.397Z,58.62
2024-01-18T11:02:28.298Z,58.45
2024-01-18T11:05:02.355Z,58.40
2024-01-18T11:07:36.901Z,58.84
2024-01-18T11:10:15.380Z,58.37
2024-01-18T11:12:50.957Z,58.04
2024-01-18T11:15:25.235Z,57.88
2024-01-18T11:18:00.394Z,58.27
2024-01-18T11:20:34.416Z,58.61
2024-01-18T11:23:08.541Z,58.05
2024-01-18T11:25:42.303Z,57.61
2024-01-18T11:28:25.529Z,57.99
2024-01-18T11:31:01.220Z,57.77
2024-01-18T11:33:35.578Z,57.96
2024-01-18T11:36:15.282Z,57.61
2024-01-18T11:38:49.637Z,57.32
2024-01-18T11:41:26.651Z,57.26
2024-01-18T11:44:03.489Z,57.37
2024-01-18T11:46:39.973Z,57.47
2024-01-18T11:49:13.917Z,57.31
2024-01-18T11:51:49.600Z,57.22
2024-01-18T11:54:23.492Z,57.25
2024-01-18T11:57:00.075Z,57.25
2024-01-18T11:59:36.178Z,57.31
2024-01-18T12:02:10.338Z,57.42
2024-01-18T12:04:44.378Z,57.87
2024-01-18T12:07:20.362Z,58.48
2024-01-18T12:09:56.499Z,59.21
2024-01-18T12:12:33.570Z,60.07
2024-01-18T12:15:09.274Z,60.94
2024-01-18T12:17:42.992Z,61.79
2024-01-18T12:20:18.961Z,62.67
2024-01-18T12:22:52.812Z,63.40
2024-01-18T12:25:28.427Z,64.27
2024-01-18T12:28:02.253Z,64.90
2024-01-18T12:30:36.787Z,65.23
2024-01-18T12:33:11.429Z,65.72
2024-01-18T12:35:46.875Z,66.06
2024-01-18T12:38:21.741Z,66.45
2024-01-18T12:40:55.278Z,66.86
2024-01-18T12:43:28.685Z,67.37
2024-01-18T12:46:02.483Z,67.71
2024-01-18T12:48:36.358Z,68.06
2024-01-18T12:51:10.218Z,68.19
2024-01-18T12:53:44.228Z,68.30
2024-01-18T12:56:18.529Z,68.46
2024-01-18T12:58:53.982Z,68.65
2024-01-18T13:01:32.283Z,69.04
2024-01-18T13:04:16.369Z,69.20
2024-01-18T13:06:57.156Z,69.50
2024-01-18T13:09:29.181Z,69.58
2024-01-18T13:12:05.525Z,69.70
2024-01-18T13:14:39.729Z,69.84
2024-01-18T13:17:14.685Z,69.87
2024-01-18T13:19:49.154Z,69.93
2024-01-18T13:22:22.680Z,70.08
2024-01-18T13:24:56.503Z,70.07
2024-01-18T13:27:30.368Z,69.94
2024-01-18T13:30:04.877Z,69.99
2024-01-18T13:32:39.153Z,69.91
2024-01-18T13:35:13.110Z,69.86
2024-01-18T13:37:46.564Z,70.04
2024-01-18T13:40:21.182Z,69.94
2024-01-18T13:42:56.222Z,69.85
2024-01-18T13:45:31.553Z,69.75
2024-01-18T13:48:06.557Z,69.64
2024-01-18T13:50:40.896Z,69.76
2024-01-18T13:53:17.445Z,69.83
2024-01-18T13:55:51.746Z,69.89
2024-01-18T13:58:25.518Z,69.97
2024-01-18T14:01:01.937Z,69.98
2024-01-18T14:03:37.097Z,70.07
2024-01-18T14:06:11.050Z,70.07
2024-01-18T14:08:46.428Z,70.06
2024-01-18T14:11:20.831Z,70.15
2024-01-18T14:13:54.835Z,70.16
2024-01-18T14:16:28.216Z,70.29
2024-01-18T14:19:02.037Z,70.45
2024-01-18T14:21:36.359Z,70.57
2024-01-18T14:24:10.241Z,70.64
2024-01-18T14:26:43.695Z,70.63
2024-01-18T14:29:17.742Z,70.62
2024-01-18T14:31:51.475Z,70.62
2024-01-18T14:34:25.262Z,70.55
2024-01-18T14:36:59.151Z,70.59
2024-01-18T14:39:34.758Z,70.59
2024-01-18T14:42:09.804Z,70.58
2024-01-18T14:44:45.378Z,70.35
2024-01-18T14:47:26.905Z,70.25
2024-01-18T14:50:01.501Z,70.21
2024-01-18T14:52:36.127Z,70.28
2024-01-18T14:55:12.055Z,70.48
2024-01-18T14:57:45.551Z,70.52
2024-01-18T15:00:20.373Z,70.54
2024-01-18T15:02:54.827Z,70.50
2024-01-18T15:05:28.961Z,70.46
2024-01-18T15:08:04.378Z,70.47
2024-01-18T15:10:38.544Z,70.43
2024-01-18T15:13:12.149Z,70.47
2024-01-18T15:15:47.500Z,70.55
2024-01-18T15:18:21.352Z,70.52
2024-01-18T15:20:55.245Z,70.52
2024-01-18T15:23:29.021Z,70.61
2024-01-18T15:26:04.505Z,70.69
2024-01-18T15:28:39.500Z,70.74
2024-01-18T15:31:16.558Z,70.77
2024-01-18T15:33:50.774Z,70.80
2024-01-18T15:36:24.475Z,70.86
2024-01-18T15:39:00.912Z,70.77
2024-01-18T15:41:36.652Z,70.79
2024-01-18T15:44:10.422Z,70.64
2024-01-18T15:46:47.315Z,70.62
2024-01-18T15:49:23.188Z,70.75
2024-01-18T15:51:56.624Z,70.86
2024-01-18T15:54:32.568Z,70.94
2024-01-18T15:57:09.780Z,71.05
2024-01-18T15:59:43.564Z,71.12
2024-01-18T16:02:17.509Z,71.19
2024-01-18T16:04:53.755Z,71.26
2024-01-18T16:07:27.802Z,71.24
2024-01-18T16:10:04.468Z,71.23
2024-01-18T16:12:40.738Z,71.26
2024-01-18T16:15:15.273Z,71.32
2024-01-18T16:17:50.378Z,71.37
2024-01-18T16:20:25.488Z,71.42
2024-01-18T16:23:02.727Z,71.49
2024-01-18T16:25:36.348Z,71.58
2024-01-18T16:28:09.974Z,71.59
2024-01-18T16:30:45.144Z,71.62
2024-01-18T16:33:19.627Z,71.64
2024-01-18T16:35:53.677Z,71.70
2024-01-18T16:38:27.752Z,71.71
2024-01-18T16:41:02.808Z,71.75
2024-01-18T16:43:38.231Z,71.50
2024-01-18T16:46:12.787Z,71.40
2024-01-18T16:48:49.163Z,71.33
2024-01-18T16:51:23.103Z,71.23
2024-01-18T16:53:56.859Z,71.11
2024-01-18T16:56:33.531Z,71.21
2024-01-18T16:59:11.675Z,71.34
2024-01-18T17:01:45.179Z,71.47
2024-01-18T17:04:18.770Z,71.35
2024-01-18T17:06:55.840Z,71.41
2024-01-18T17:09:33.020Z,71.37
2024-01-18T17:12:10.482Z,71.18
2024-01-18T17:14:45.866Z,71.15
2024-01-18T17:17:21.557Z,71.09
2024-01-18T17:19:55.381Z,71.11
2024-01-18T17:22:29.494Z,71.20
2024-01-18T17:25:06.172Z,71.21
2024-01-18T17:27:46.218Z,71.23
2024-01-18T17:30:21.459Z,71.37
2024-01-18T17:32:58.192Z,71.53
2024-01-18T17:35:32.189Z,71.55
2024-01-18T17:38:08.056Z,71.53
2024-01-18T17:40:44.964Z,71.60
2024-01-18T17:43:20.480Z,71.75
2024-01-18T17:48:37.683Z,71.87
2024-01-18T17:51:13.414Z,71.87
2024-01-18T17:53:47.570Z,71.72
2024-01-18T17:56:21.626Z,71.65
2024-01-18T17:58:58.077Z,71.62
2024-01-18T18:01:32.869Z,71.68
2024-01-18T18:04:08.345Z,71.53
2024-01-18T18:06:49.321Z,71.69
2024-01-18T18:09:22.872Z,71.69
2024-01-18T18:11:56.578Z,71.76
2024-01-18T18:14:32.323Z,71.72
2024-01-18T18:17:07.161Z,71.85
2024-01-18T18:19:41.819Z,71.86
2024-01-18T18:22:17.315Z,71.90
2024-01-18T18:24:52.187Z,71.87
2024-01-18T18:27:26.424Z,71.89
2024-01-18T18:30:00.802Z,71.83
2024-01-18T18:32:35.753Z,71.86
2024-01-18T18:35:30.468Z,71.90
2024-01-18T18:38:21.242Z,71.95
2024-01-18T18:40:50.173Z,71.95
2024-01-18T18:43:24.387Z,72.10
2024-01-18T18:46:02.608Z,72.11
2024-01-18T18:48:37.312Z,72.05
2024-01-18T18:51:14.415Z,72.21
2024-01-18T18:53:48.231Z,72.11
2024-01-18T18:56:22.730Z,72.16
2024-01-18T18:58:56.274Z,72.16
2024-01-18T19:01:30.045Z,72.18
2024-01-18T19:04:04.288Z,72.32
2024-01-18T19:06:38.048Z,72.37
2024-01-18T19:09:11.721Z,72.38
2024-01-18T19:11:45.382Z,72.47
2024-01-18T19:14:19.479Z,72.50
2024-01-18T19:16:53.590Z,72.39
2024-01-18T19:19:27.194Z,72.35
2024-01-18T19:22:00.788Z,72.35
2024-01-18T19:24:34.151Z,72.33
2024-01-18T19:27:08.973Z,72.31
2024-01-18T19:29:46.582Z,72.34
2024-01-18T19:32:20.665Z,72.38
2024-01-18T19:34:54.611Z,72.45
2024-01-18T19:37:28.669Z,72.44
2024-01-18T19:40:05.464Z,72.40
2024-01-18T19:42:41.045Z,72.37
2024-01-18T19:45:15.974Z,72.36
2024-01-18T19:47:51.627Z,72.44
2024-01-18T19:50:30.762Z,72.51
2024-01-18T19:53:09.116Z,72.56
2024-01-18T19:55:53.921Z,72.57
2024-01-18T19:58:27.823Z,72.52
2024-01-18T20:01:05.536Z,72.57
2024-01-18T20:03:39.925Z,72.62
2024-01-18T20:06:13.773Z,72.65
2024-01-18T20:08:47.549Z,72.56
2024-01-18T20:11:21.237Z,72.54
2024-01-18T20:13:54.821Z,72.59
2024-01-18T20:16:28.401Z,72.55
2024-01-18T20:19:08.148Z,72.59
2024-01-18T20:21:37.822Z,72.70
2024-01-18T20:24:11.622Z,72.73
2024-01-18T20:26:45.670Z,72.76
2024-01-18T20:29:19.874Z,72.82
2024-01-18T20:31:53.674Z,72.89
2024-01-18T20:34:27.322Z,72.92
2024-01-18T20:37:01.783Z,72.90
2024-01-18T20:39:36.633Z,72.86
2024-01-18T20:42:13.105Z,72.87
2024-01-18T20:44:47.043Z,72.86
2024-01-18T20:47:21.527Z,72.90
2024-01-18T20:49:55.485Z,72.97
2024-01-18T20:52:28.845Z,72.96
2024-01-18T20:55:02.447Z,72.93
2024-01-18T20:57:35.792Z,72.81
2024-01-18T21:00:18.666Z,72.82
2024-01-18T21:02:47.909Z,72.88
2024-01-18T21:05:21.694Z,72.95
2024-01-18T21:07:56.540Z,73.03
2024-01-18T21:10:33.147Z,73.17
2024-01-18T21:13:06.813Z,73.20
2024-01-18T21:15:40.825Z,73.22
2024-01-18T21:18:15.600Z,73.29
2024-01-18T21:20:49.560Z,73.30
2024-01-18T21:23:25.246Z,73.36
2024-01-18T21:26:00.983Z,73.37
2024-01-18T21:28:34.973Z,73.37
2024-01-18T21:31:09.239Z,73.36
2024-01-18T21:33:43.069Z,73.34
2024-01-18T21:36:17.146Z,73.37
2024-01-18T21:38:50.958Z,73.40
2024-01-18T21:41:26.370Z,73.45
2024-01-18T21:44:00.265Z,73.40
2024-01-18T21:46:33.691Z,73.33
2024-01-18T21:49:08.504Z,73.33
2024-01-18T21:51:42.843Z,73.32
2024-01-18T21:54:16.832Z,73.38
2024-01-18T21:56:50.700Z,73.37
2024-01-18T21:59:32.628Z,73.39
2024-01-18T22:01:59.911Z,73.35
2024-01-18T22:04:33.979Z,73.37
2024-01-18T22:07:09.376Z,73.40
2024-01-18T22:09:43.604Z,73.35
2024-01-18T22:12:17.291Z,73.34
2024-01-18T22:14:53.497Z,73.37
2024-01-18T22:17:27.197Z,73.32
2024-01-18T22:20:05.169Z,73.26
2024-01-18T22:22:36.871Z,73.29
2024-01-18T22:25:12.021Z,73.32
2024-01-18T22:27:45.560Z,73.36
2024-01-18T22:30:19.363Z,73.34
2024-01-18T22:32:52.828Z,73.39
2024-01-18T22:35:26.915Z,73.40
2024-01-18T22:38:00.611Z,73.42
2024-01-18T22:40:34.014Z,73.45
2024-01-18T22:43:08.127Z,73.55
2024-01-18T22:45:41.826Z,73.59
2024-01-18T22:48:17.499Z,73.51
2024-01-18T22:50:51.628Z,73.53
2024-01-18T22:53:25.390Z,73.59
2024-01-18T22:55:58.845Z,73.44
2024-01-18T22:58:34.122Z,73.34
2024-01-18T23:01:10.645Z,73.31
2024-01-18T23:03:44.897Z,73.38
2024-01-18T23:06:18.762Z,73.28
2024-01-18T23:08:52.476Z,73.29
2024-01-18T23:11:26.116Z,73.30
2024-01-18T23:13:59.845Z,73.31
2024-01-18T23:16:33.437Z,73.29
2024-01-18T23:19:11.220Z,73.30
2024-01-18T23:21:44.355Z,73.22
2024-01-18T23:24:17.876Z,73.25
2024-01-18T23:26:51.432Z,73.34
2024-01-18T23:29:25.110Z,73.28
2024-01-18T23:31:58.733Z,73.21
2024-01-18T23:34:32.329Z,73.16
2024-01-18T23:37:06.913Z,73.17
2024-01-18T23:39:40.347Z,73.22
2024-01-18T23:42:19.790Z,73.32
2024-01-18T23:44:53.644Z,73.44
2024-01-18T23:47:27.620Z,73.51
2024-01-18T23:50:02.133Z,73.46
2024-01-18T23:52:35.817Z,73.38
2024-01-18T23:55:12.424Z,73.36
2024-01-18T23:57:45.849Z,73.32
